Time;durP1;ratioP1;P1;durP2;ratioP2;P2;SDS_P1;SDS_P2;PMS_P1;PMS_P2;Temp;Humidity;BMP_temperature;BMP_pressure;BME280_temperature;BME280_humidity;BME280_pressure;Samples;Min_cycle;Max_cycle;Signal;HPM_P1;HPM_P2
2023/03/14 00:01:22;;;;;;;2.25;0.82;;;9.80;99.90;;;;;;5012669;28;20234;-75
2023/03/14 00:03:48;;;;;;;1.13;1.05;;;9.80;99.90;;;;;;5015666;28;20185;-76
2023/03/14 00:06:14;;;;;;;1.05;1.05;;;9.80;99.90;;;;;;5014233;28;20212;-75
2023/03/14 00:08:41;;;;;;;1.10;1.00;;;9.70;99.90;;;;;;5013848;28;20550;-75
2023/03/14 00:11:12;;;;;;;1.27;1.17;;;9.70;99.90;;;;;;5014811;28;20610;-77
2023/03/14 00:13:38;;;;;;;0.82;0.82;;;9.70;99.90;;;;;;5015072;28;20254;-77
2023/03/14 00:16:06;;;;;;;0.98;0.98;;;9.70;99.90;;;;;;5017057;28;20602;-78
2023/03/14 00:18:33;;;;;;;1.00;1.00;;;9.70;99.90;;;;;;5012748;28;20197;-76
2023/03/14 00:21:00;;;;;;;2.70;1.30;;;9.70;99.90;;;;;;5012375;28;20695;-76
2023/03/14 00:23:27;;;;;;;0.95;0.70;;;9.70;99.90;;;;;;5015894;28;20196;-76
2023/03/14 00:25:52;;;;;;;2.00;1.20;;;9.60;99.90;;;;;;5015721;28;20711;-76
2023/03/14 00:28:18;;;;;;;0.88;0.88;;;9.50;99.90;;;;;;5014846;28;20193;-76
2023/03/14 00:30:43;;;;;;;0.88;0.88;;;9.40;99.90;;;;;;5013619;28;20280;-76
2023/03/14 00:33:09;;;;;;;0.70;0.70;;;9.40;99.90;;;;;;5014477;28;20188;-76
2023/03/14 00:35:35;;;;;;;0.70;0.70;;;9.50;99.90;;;;;;5014605;28;20185;-76
2023/03/14 00:38:00;;;;;;;0.75;0.75;;;9.70;99.90;;;;;;5013529;28;20264;-75
2023/03/14 00:40:26;;;;;;;1.00;1.00;;;9.60;99.90;;;;;;5011808;28;20258;-75
2023/03/14 00:42:51;;;;;;;0.95;0.95;;;9.60;99.90;;;;;;5014126;28;20674;-75
2023/03/14 00:45:17;;;;;;;0.68;0.68;;;9.60;99.90;;;;;;5014046;28;20192;-77
2023/03/14 00:47:45;;;;;;;1.08;0.95;;;9.60;99.90;;;;;;5015246;28;20184;-74
2023/03/14 00:50:11;;;;;;;0.73;0.63;;;9.50;99.90;;;;;;5013033;28;20834;-74
2023/03/14 00:52:36;;;;;;;1.70;0.70;;;9.60;99.90;;;;;;5014596;28;20259;-74
2023/03/14 00:55:02;;;;;;;0.65;0.65;;;9.60;99.90;;;;;;5014001;28;20242;-74
2023/03/14 00:57:28;;;;;;;0.60;0.60;;;9.60;99.90;;;;;;5014228;28;20200;-74
2023/03/14 00:59:53;;;;;;;3.30;0.77;;;9.60;99.90;;;;;;5014308;28;20299;-76
2023/03/14 01:02:19;;;;;;;0.80;0.80;;;9.60;99.90;;;;;;5013832;28;20184;-77
2023/03/14 01:04:47;;;;;;;0.60;0.60;;;9.60;99.90;;;;;;5014016;28;21540;-75
2023/03/14 01:07:13;;;;;;;1.02;1.00;;;9.50;99.90;;;;;;5013168;28;20185;-75
2023/03/14 01:09:38;;;;;;;2.00;0.77;;;9.50;99.90;;;;;;5012184;28;20269;-75
2023/03/14 01:12:04;;;;;;;0.65;0.65;;;9.60;99.90;;;;;;5014756;28;20181;-77
2023/03/14 01:14:29;;;;;;;1.35;1.25;;;9.50;99.90;;;;;;5013872;28;20213;-75
2023/03/14 01:17:00;;;;;;;0.70;0.70;;;9.50;99.90;;;;;;5015199;28;20188;-76
2023/03/14 01:19:28;;;;;;;1.08;0.80;;;9.50;99.90;;;;;;5012752;28;20243;-76
2023/03/14 01:21:54;;;;;;;1.20;1.10;;;9.70;99.90;;;;;;5013207;28;20586;-75
2023/03/14 01:24:20;;;;;;;0.80;0.80;;;9.70;99.90;;;;;;5013247;28;20896;-76
2023/03/14 01:26:46;;;;;;;0.93;0.70;;;9.60;99.90;;;;;;5014011;28;20189;-75
2023/03/14 01:29:12;;;;;;;0.77;0.77;;;9.70;99.90;;;;;;5012098;28;20523;-76
2023/03/14 01:31:37;;;;;;;0.60;0.60;;;9.60;99.90;;;;;;5011933;28;20243;-76
2023/03/14 01:34:03;;;;;;;0.82;0.80;;;9.60;99.90;;;;;;5012953;28;20192;-75
2023/03/14 01:36:29;;;;;;;0.80;0.80;;;9.70;99.90;;;;;;5010812;28;20213;-76
2023/03/14 01:38:54;;;;;;;0.75;0.45;;;9.70;99.90;;;;;;5010448;28;20189;-76
2023/03/14 01:41:25;;;;;;;1.02;0.60;;;9.80;99.90;;;;;;5011383;28;20712;-76
2023/03/14 01:43:51;;;;;;;0.63;0.55;;;9.80;99.90;;;;;;5014877;28;20555;-75
2023/03/14 01:46:33;;;;;;;0.73;0.73;;;9.90;99.90;;;;;;5012908;28;20181;-76
2023/03/14 01:49:01;;;;;;;0.52;0.52;;;9.90;99.90;;;;;;5011308;28;20287;-76
2023/03/14 01:51:58;;;;;;;0.73;0.73;;;9.70;99.90;;;;;;5010265;28;20735;-75
2023/03/14 01:54:27;;;;;;;0.63;0.63;;;9.70;99.90;;;;;;5012807;28;20187;-76
2023/03/14 01:56:59;;;;;;;0.50;0.50;;;9.80;99.90;;;;;;5009624;28;20231;-75
2023/03/14 01:59:26;;;;;;;0.60;0.60;;;9.90;99.90;;;;;;5011943;28;20172;-74
2023/03/14 02:01:54;;;;;;;0.40;0.40;;;9.80;99.90;;;;;;5011055;28;20188;-74
2023/03/14 02:04:20;;;;;;;0.52;0.52;;;9.90;99.90;;;;;;5012328;28;20245;-75
2023/03/14 02:06:50;;;;;;;1.85;0.47;;;9.90;99.90;;;;;;5015508;28;20714;-75
2023/03/14 02:09:16;;;;;;;0.63;0.30;;;9.80;99.90;;;;;;5014147;28;20311;-75
2023/03/14 02:11:43;;;;;;;0.45;0.30;;;9.70;99.90;;;;;;5016400;28;20636;-75
2023/03/14 02:14:14;;;;;;;0.47;0.40;;;9.70;99.90;;;;;;5015127;28;20185;-75
2023/03/14 02:16:39;;;;;;;0.75;0.50;;;9.70;99.90;;;;;;5015726;28;20674;-75
2023/03/14 02:19:06;;;;;;;0.50;0.50;;;9.60;99.90;;;;;;5015377;28;20207;-75
2023/03/14 02:21:46;;;;;;;0.30;0.30;;;9.60;99.90;;;;;;5017450;28;20289;-75
2023/03/14 02:24:32;;;;;;;0.73;0.50;;;9.60;99.90;;;;;;5015786;28;20193;-74
2023/03/14 02:27:05;;;;;;;0.45;0.45;;;9.50;99.90;;;;;;5012538;28;20705;-74
2023/03/14 02:29:33;;;;;;;0.30;0.30;;;9.40;99.90;;;;;;5013695;28;20210;-74
2023/03/14 02:31:59;;;;;;;0.28;0.28;;;9.30;99.90;;;;;;5014787;28;20223;-75
2023/03/14 02:34:25;;;;;;;0.50;0.15;;;9.30;99.90;;;;;;5014615;28;20181;-74
2023/03/14 02:36:51;;;;;;;0.50;0.50;;;9.20;99.90;;;;;;5016998;28;20181;-75
2023/03/14 02:39:42;;;;;;;0.20;0.20;;;9.20;99.90;;;;;;5015181;28;20570;-74
2023/03/14 02:42:08;;;;;;;0.90;0.30;;;9.20;99.90;;;;;;5011194;28;20204;-74
2023/03/14 02:44:35;;;;;;;0.35;0.35;;;9.10;99.90;;;;;;5013341;28;20192;-74
2023/03/14 02:47:02;;;;;;;0.60;0.30;;;9.10;99.90;;;;;;5013866;28;20193;-75
2023/03/14 02:49:31;;;;;;;0.68;0.45;;;9.00;99.90;;;;;;5013155;28;20253;-74
2023/03/14 02:51:56;;;;;;;0.40;0.40;;;9.00;99.90;;;;;;5012914;28;20212;-75
2023/03/14 02:54:22;;;;;;;0.25;0.20;;;9.00;99.90;;;;;;5012818;28;20262;-75
2023/03/14 02:56:47;;;;;;;0.20;0.20;;;8.90;99.90;;;;;;5013726;28;20177;-74
2023/03/14 02:59:13;;;;;;;0.25;0.25;;;8.90;99.90;;;;;;5013460;28;20541;-74
2023/03/14 03:01:38;;;;;;;0.17;0.17;;;8.90;99.90;;;;;;5014156;28;20235;-74
2023/03/14 03:04:04;;;;;;;0.20;0.20;;;8.90;99.90;;;;;;5011542;28;20192;-74
2023/03/14 03:06:30;;;;;;;0.28;0.20;;;8.80;99.90;;;;;;5015084;28;20759;-74
2023/03/14 03:08:56;;;;;;;0.22;0.22;;;8.90;99.90;;;;;;5012929;28;20180;-74
2023/03/14 03:11:21;;;;;;;0.30;0.30;;;8.90;99.90;;;;;;5013436;28;20722;-75
2023/03/14 03:13:47;;;;;;;0.28;0.25;;;8.90;99.90;;;;;;5012654;28;20180;-74
2023/03/14 03:16:15;;;;;;;0.40;0.40;;;9.00;99.90;;;;;;5010370;28;20191;-75
2023/03/14 03:18:41;;;;;;;0.30;0.30;;;8.90;99.90;;;;;;5012931;28;20189;-75
2023/03/14 03:21:08;;;;;;;2.00;0.40;;;8.90;99.90;;;;;;5015237;28;20223;-75
2023/03/14 03:23:34;;;;;;;0.32;0.32;;;8.90;99.90;;;;;;5016510;28;20182;-75
2023/03/14 03:26:00;;;;;;;0.30;0.30;;;8.90;99.90;;;;;;5018805;28;20276;-75
2023/03/14 03:28:25;;;;;;;0.20;0.20;;;8.90;99.90;;;;;;5015239;28;20566;-75
2023/03/14 03:30:51;;;;;;;0.35;0.35;;;9.00;99.90;;;;;;5015391;28;20212;-75
2023/03/14 03:33:17;;;;;;;1.60;0.60;;;8.90;99.90;;;;;;5016123;28;20197;-75
2023/03/14 03:35:48;;;;;;;0.40;0.40;;;9.00;99.90;;;;;;5016788;28;20189;-76
2023/03/14 03:38:15;;;;;;;0.43;0.43;;;8.90;99.90;;;;;;5014118;28;20177;-75
2023/03/14 03:40:40;;;;;;;0.60;0.47;;;8.90;99.90;;;;;;5014565;28;20292;-75
2023/03/14 03:43:06;;;;;;;0.47;0.38;;;8.80;99.90;;;;;;5015477;28;20273;-75
2023/03/14 03:45:32;;;;;;;0.45;0.45;;;8.80;99.90;;;;;;5013698;28;20188;-75
2023/03/14 03:47:57;;;;;;;0.30;0.30;;;8.80;99.90;;;;;;5016835;28;20717;-75
2023/03/14 03:50:23;;;;;;;0.20;0.20;;;8.90;99.90;;;;;;5020733;28;20738;-74
2023/03/14 03:52:49;;;;;;;0.50;0.50;;;8.90;99.90;;;;;;5022317;28;20260;-75
2023/03/14 03:55:14;;;;;;;0.52;0.52;;;8.90;99.90;;;;;;5020158;28;20183;-75
2023/03/14 03:57:40;;;;;;;0.17;0.17;;;8.90;99.90;;;;;;5021681;28;20193;-75
2023/03/14 04:00:08;;;;;;;0.88;0.50;;;8.90;99.90;;;;;;5020248;28;20219;-75
2023/03/14 04:02:34;;;;;;;0.43;0.40;;;8.80;99.90;;;;;;5022446;28;20219;-75
2023/03/14 04:05:00;;;;;;;0.75;0.10;;;8.80;99.90;;;;;;5021454;28;20660;-75
2023/03/14 04:07:25;;;;;;;0.45;0.45;;;8.70;99.90;;;;;;5019969;28;20222;-75
2023/03/14 04:09:51;;;;;;;0.47;0.30;;;8.60;99.90;;;;;;5022328;28;20216;-75
2023/03/14 04:12:16;;;;;;;0.60;0.45;;;8.70;99.90;;;;;;5020731;28;20681;-75
2023/03/14 04:14:42;;;;;;;0.50;0.50;;;8.70;99.90;;;;;;5020301;28;20187;-75
2023/03/14 04:17:08;;;;;;;0.57;0.57;;;8.60;99.90;;;;;;5024628;28;20175;-74
2023/03/14 04:19:33;;;;;;;0.30;0.30;;;8.70;99.90;;;;;;5020710;28;20239;-75
2023/03/14 04:21:59;;;;;;;3.40;0.32;;;8.60;99.90;;;;;;5021661;28;20189;-75
2023/03/14 04:24:24;;;;;;;0.52;0.52;;;8.70;99.90;;;;;;5021017;28;20209;-74
2023/03/14 04:26:50;;;;;;;1.65;0.52;;;8.70;99.90;;;;;;5022306;28;20227;-78
2023/03/14 04:29:16;;;;;;;0.82;0.60;;;8.70;99.90;;;;;;5019685;28;20196;-74
2023/03/14 04:31:41;;;;;;;1.30;0.50;;;8.80;99.90;;;;;;5020577;28;20207;-76
2023/03/14 04:34:07;;;;;;;1.05;0.32;;;8.80;99.90;;;;;;5024328;28;20180;-75
2023/03/14 04:36:32;;;;;;;2.05;0.35;;;8.70;99.90;;;;;;5021779;28;20512;-75
2023/03/14 04:38:58;;;;;;;0.40;0.40;;;8.70;99.90;;;;;;5020628;28;20234;-75
2023/03/14 04:41:24;;;;;;;0.60;0.60;;;8.70;99.90;;;;;;5010290;28;20204;-75
2023/03/14 04:43:49;;;;;;;1.50;0.32;;;8.70;99.90;;;;;;5019289;28;20189;-76
2023/03/14 04:46:15;;;;;;;0.40;0.40;;;8.70;99.90;;;;;;5023486;28;20271;-75
2023/03/14 04:48:41;;;;;;;0.28;0.28;;;8.70;99.90;;;;;;5018480;28;20197;-75
2023/03/14 04:51:06;;;;;;;0.52;0.52;;;8.70;99.90;;;;;;5019752;28;20214;-75
2023/03/14 04:53:33;;;;;;;0.52;0.30;;;8.70;99.90;;;;;;5022051;28;20189;-75
2023/03/14 04:55:59;;;;;;;0.43;0.43;;;8.60;99.90;;;;;;5020820;28;20228;-76
2023/03/14 04:58:25;;;;;;;0.70;0.70;;;8.70;99.90;;;;;;5019803;28;20180;-75
2023/03/14 05:00:50;;;;;;;0.60;0.60;;;8.70;99.90;;;;;;5022515;28;20231;-75
2023/03/14 05:03:17;;;;;;;0.35;0.35;;;8.60;99.90;;;;;;5019522;28;20223;-76
2023/03/14 05:05:43;;;;;;;0.50;0.50;;;8.50;99.90;;;;;;5018720;28;20183;-76
2023/03/14 05:08:09;;;;;;;0.65;0.65;;;8.50;99.90;;;;;;5019791;28;20238;-76
2023/03/14 05:10:35;;;;;;;0.20;0.20;;;8.60;99.90;;;;;;5021021;28;20618;-75
2023/03/14 05:13:00;;;;;;;0.17;0.17;;;8.60;99.90;;;;;;5019623;28;20208;-75
2023/03/14 05:15:26;;;;;;;0.50;0.50;;;8.70;99.90;;;;;;5020226;28;20183;-75
2023/03/14 05:17:53;;;;;;;0.30;0.30;;;8.70;99.90;;;;;;5019600;28;20208;-75
2023/03/14 05:20:19;;;;;;;0.70;0.55;;;8.80;99.90;;;;;;5018572;28;20223;-75
2023/03/14 05:22:45;;;;;;;0.60;0.60;;;8.70;99.90;;;;;;5019808;28;20177;-75
2023/03/14 05:25:11;;;;;;;0.30;0.30;;;8.70;99.90;;;;;;5017760;28;20188;-74
2023/03/14 05:27:36;;;;;;;0.35;0.35;;;8.60;99.90;;;;;;5016411;28;20550;-76
2023/03/14 05:30:04;;;;;;;0.40;0.40;;;8.60;99.90;;;;;;5020393;28;20209;-75
2023/03/14 05:32:30;;;;;;;1.38;0.75;;;8.60;99.90;;;;;;5021689;28;20247;-74
2023/03/14 05:34:58;;;;;;;0.35;0.35;;;8.60;99.90;;;;;;5018841;28;20196;-75
2023/03/14 05:37:27;;;;;;;0.40;0.40;;;8.60;99.90;;;;;;5020361;28;20187;-74
2023/03/14 05:39:53;;;;;;;0.40;0.40;;;8.60;99.90;;;;;;5020486;28;20238;-75
2023/03/14 05:42:19;;;;;;;1.88;0.60;;;8.60;99.90;;;;;;5026003;28;20557;-75
2023/03/14 05:44:44;;;;;;;1.30;0.57;;;8.70;99.90;;;;;;5022633;28;20462;-75
2023/03/14 05:47:10;;;;;;;0.47;0.47;;;8.70;99.90;;;;;;5024180;28;20666;-75
2023/03/14 05:49:35;;;;;;;0.70;0.70;;;8.80;99.90;;;;;;5025087;28;20254;-75
2023/03/14 05:52:01;;;;;;;0.47;0.47;;;8.80;99.90;;;;;;5023884;28;20204;-78
2023/03/14 05:54:26;;;;;;;1.05;0.90;;;8.80;99.90;;;;;;5023682;28;20256;-75
2023/03/14 05:56:52;;;;;;;0.73;0.73;;;8.90;99.90;;;;;;5022928;28;20174;-74
2023/03/14 05:59:18;;;;;;;1.58;1.48;;;8.80;99.90;;;;;;5022635;28;20189;-75
2023/03/14 06:01:43;;;;;;;0.85;0.77;;;8.80;99.90;;;;;;5026539;28;20553;-75
2023/03/14 06:04:09;;;;;;;4.03;1.95;;;8.90;99.90;;;;;;5025559;28;20314;-75
2023/03/14 06:06:35;;;;;;;1.70;0.57;;;8.90;99.90;;;;;;5026370;28;20234;-75
2023/03/14 06:09:01;;;;;;;0.60;0.60;;;8.90;99.90;;;;;;5023304;28;20262;-76
2023/03/14 06:11:26;;;;;;;0.68;0.68;;;8.90;99.90;;;;;;5026215;28;20212;-79
2023/03/14 06:13:52;;;;;;;2.03;0.68;;;8.90;99.90;;;;;;5021987;28;20808;-75
2023/03/14 06:16:17;;;;;;;1.45;0.60;;;8.90;99.90;;;;;;5023494;28;20191;-75
2023/03/14 06:18:43;;;;;;;1.23;0.47;;;8.90;99.90;;;;;;5024991;28;20195;-75
2023/03/14 06:21:09;;;;;;;0.80;0.80;;;9.00;99.90;;;;;;5025285;28;20658;-82
2023/03/14 06:23:34;;;;;;;0.60;0.60;;;9.10;99.90;;;;;;5023575;28;20211;-76
2023/03/14 06:26:00;;;;;;;1.77;1.00;;;9.20;99.90;;;;;;5023249;28;20253;-74
2023/03/14 06:28:26;;;;;;;0.98;0.98;;;9.30;99.90;;;;;;5024094;28;20728;-76
2023/03/14 06:30:52;;;;;;;1.42;0.68;;;9.40;99.90;;;;;;5026817;28;20212;-77
2023/03/14 06:33:17;;;;;;;1.42;0.77;;;9.60;99.90;;;;;;5020523;28;20228;-76
2023/03/14 06:35:43;;;;;;;0.70;0.70;;;9.70;99.90;;;;;;5023778;28;20270;-76
2023/03/14 06:38:09;;;;;;;0.95;0.47;;;9.70;99.90;;;;;;5021149;28;20230;-75
2023/03/14 06:40:34;;;;;;;0.50;0.50;;;9.80;99.90;;;;;;5017730;28;20676;-75
2023/03/14 06:43:00;;;;;;;0.60;0.60;;;9.80;99.90;;;;;;5022757;28;20191;-76
2023/03/14 06:45:26;;;;;;;0.30;0.30;;;9.80;99.90;;;;;;5024782;28;20228;-75
2023/03/14 06:47:51;;;;;;;0.75;0.60;;;9.80;99.90;;;;;;5024853;28;20555;-76
2023/03/14 06:50:17;;;;;;;0.93;0.80;;;9.70;99.90;;;;;;5025367;28;20306;-77
2023/03/14 06:52:47;;;;;;;0.55;0.55;;;9.70;99.90;;;;;;5024021;28;20185;-76
2023/03/14 06:55:13;;;;;;;0.70;0.70;;;9.80;99.90;;;;;;5025334;28;20636;-76
2023/03/14 06:57:39;;;;;;;1.30;0.60;;;10.00;99.90;;;;;;5022393;28;20668;-76
2023/03/14 07:00:06;;;;;;;1.38;0.60;;;10.00;99.90;;;;;;5021142;28;20254;-76
2023/03/14 07:02:31;;;;;;;0.40;0.40;;;10.20;99.90;;;;;;5024993;28;20262;-76
2023/03/14 07:04:57;;;;;;;0.43;0.43;;;10.20;99.90;;;;;;5023696;28;20180;-75
2023/03/14 07:07:22;;;;;;;1.08;0.35;;;10.20;99.90;;;;;;5022614;28;20242;-78
2023/03/14 07:09:48;;;;;;;0.95;0.95;;;10.20;99.90;;;;;;5021028;28;20208;-76
2023/03/14 07:12:13;;;;;;;0.93;0.93;;;10.30;99.90;;;;;;5023034;28;20275;-76
2023/03/14 07:14:39;;;;;;;0.60;0.60;;;10.30;99.90;;;;;;5022550;28;20180;-76
2023/03/14 07:17:05;;;;;;;1.00;0.75;;;10.30;99.90;;;;;;5026619;28;20184;-76
2023/03/14 07:19:30;;;;;;;0.40;0.40;;;10.20;99.90;;;;;;5031591;28;20215;-75
2023/03/14 07:21:57;;;;;;;1.63;1.50;;;10.20;99.90;;;;;;5033074;28;20316;-75
2023/03/14 07:24:22;;;;;;;3.17;2.05;;;10.30;99.90;;;;;;5032597;28;20208;-75
2023/03/14 07:26:48;;;;;;;1.00;1.00;;;10.40;99.90;;;;;;5034693;28;20651;-75
2023/03/14 07:29:13;;;;;;;0.45;0.45;;;10.50;99.90;;;;;;5033521;28;20215;-75
2023/03/14 07:31:39;;;;;;;4.45;1.23;;;10.60;99.90;;;;;;5028520;28;20264;-75
2023/03/14 07:34:05;;;;;;;1.65;1.55;;;10.70;99.90;;;;;;5033150;28;20613;-75
2023/03/14 07:36:30;;;;;;;3.22;0.90;;;10.70;99.90;;;;;;5031355;28;20188;-75
2023/03/14 07:38:56;;;;;;;1.50;1.40;;;10.70;99.90;;;;;;5029869;28;20180;-74
2023/03/14 07:41:22;;;;;;;0.98;0.88;;;10.80;99.90;;;;;;5033977;28;20668;-74
2023/03/14 07:43:48;;;;;;;2.28;2.15;;;10.70;99.90;;;;;;5036991;28;20185;-75
2023/03/14 07:46:14;;;;;;;3.67;2.30;;;10.70;99.90;;;;;;5031931;28;20176;-75
2023/03/14 07:48:40;;;;;;;2.42;2.22;;;10.70;99.90;;;;;;5031879;28;20663;-76
2023/03/14 07:51:06;;;;;;;3.00;2.80;;;10.80;99.90;;;;;;5027377;28;20208;-75
2023/03/14 07:53:32;;;;;;;3.28;3.08;;;10.70;99.90;;;;;;5034042;28;20600;-75
2023/03/14 07:55:57;;;;;;;3.60;3.40;;;10.70;99.90;;;;;;5033108;28;20181;-75
2023/03/14 07:58:23;;;;;;;4.88;2.90;;;10.80;99.90;;;;;;5029718;28;20181;-75
2023/03/14 08:00:50;;;;;;;1.55;1.48;;;10.70;99.90;;;;;;5033780;28;20283;-75
2023/03/14 08:03:16;;;;;;;1.48;1.33;;;10.70;99.90;;;;;;5037157;28;20176;-74
2023/03/14 08:05:42;;;;;;;1.60;1.50;;;10.70;99.90;;;;;;5028708;28;20180;-75
2023/03/14 08:08:08;;;;;;;1.42;0.85;;;10.70;99.90;;;;;;5029861;28;20260;-75
2023/03/14 08:10:33;;;;;;;3.05;2.70;;;10.70;99.90;;;;;;5030636;28;20210;-76
2023/03/14 08:13:00;;;;;;;4.10;3.80;;;10.70;99.90;;;;;;5031650;28;20274;-76
2023/03/14 08:15:26;;;;;;;3.17;2.83;;;10.80;99.90;;;;;;5030434;28;20175;-75
2023/03/14 08:17:53;;;;;;;2.13;1.98;;;10.80;99.90;;;;;;5033115;28;20262;-75
2023/03/14 08:20:20;;;;;;;3.60;3.40;;;10.90;99.90;;;;;;5033218;28;20281;-75
2023/03/14 08:22:45;;;;;;;1.25;1.25;;;11.00;99.90;;;;;;5027713;28;20187;-77
2023/03/14 08:25:11;;;;;;;1.95;1.85;;;11.10;99.90;;;;;;5031900;28;20267;-76
2023/03/14 08:27:38;;;;;;;2.97;1.77;;;11.30;99.90;;;;;;5029477;28;20220;-76
2023/03/14 08:30:06;;;;;;;2.47;2.28;;;11.40;99.90;;;;;;5032444;28;20560;-75
2023/03/14 08:32:31;;;;;;;1.38;1.38;;;11.70;99.90;;;;;;5030753;28;20184;-75
2023/03/14 08:34:57;;;;;;;1.67;1.58;;;11.80;99.90;;;;;;5027066;28;20180;-75
2023/03/14 08:37:24;;;;;;;2.70;2.50;;;12.10;99.90;;;;;;5026212;28;20185;-76
2023/03/14 08:39:51;;;;;;;2.83;2.55;;;12.20;99.90;;;;;;5031043;28;20246;-74
2023/03/14 08:42:17;;;;;;;2.33;1.17;;;12.40;99.90;;;;;;5034261;28;20187;-75
2023/03/14 08:44:42;;;;;;;3.15;1.55;;;12.60;99.90;;;;;;5035023;28;20180;-76
2023/03/14 08:47:08;;;;;;;0.70;0.70;;;12.60;99.90;;;;;;5027159;28;20185;-75
2023/03/14 08:49:33;;;;;;;1.60;1.50;;;12.60;99.90;;;;;;5026846;28;20211;-74
2023/03/14 08:52:01;;;;;;;3.13;1.20;;;12.70;99.90;;;;;;5029395;28;20220;-76
2023/03/14 08:54:26;;;;;;;0.60;0.60;;;12.90;99.90;;;;;;5023338;28;20243;-75
2023/03/14 08:56:52;;;;;;;0.90;0.90;;;13.10;99.90;;;;;;5030832;28;20575;-75
2023/03/14 08:59:17;;;;;;;0.93;0.73;;;13.20;99.90;;;;;;5028897;28;20427;-75
2023/03/14 09:01:43;;;;;;;0.85;0.60;;;13.10;99.90;;;;;;5030077;28;20209;-75
2023/03/14 09:04:09;;;;;;;2.10;1.63;;;13.20;99.90;;;;;;5029866;28;20651;-74
2023/03/14 09:06:35;;;;;;;3.83;2.65;;;13.30;99.90;;;;;;5025026;28;20270;-74
2023/03/14 09:09:01;;;;;;;2.38;1.00;;;13.50;99.90;;;;;;5025353;28;20235;-75
2023/03/14 09:11:27;;;;;;;0.68;0.50;;;13.60;99.90;;;;;;5029730;28;20629;-75
2023/03/14 09:13:52;;;;;;;1.60;1.50;;;13.60;99.90;;;;;;5025270;28;20188;-77
2023/03/14 09:16:18;;;;;;;1.08;1.00;;;13.60;99.90;;;;;;5022996;28;20258;-78
2023/03/14 09:18:44;;;;;;;3.05;1.88;;;13.60;99.90;;;;;;5024180;28;20299;-77
2023/03/14 09:21:09;;;;;;;0.20;0.20;;;13.70;99.90;;;;;;5021840;28;20208;-77
2023/03/14 09:23:35;;;;;;;1.27;0.80;;;13.80;99.90;;;;;;5021221;28;20426;-76
2023/03/14 09:26:01;;;;;;;1.58;1.48;;;13.90;99.90;;;;;;5023614;28;20266;-76
2023/03/14 09:28:27;;;;;;;0.52;0.52;;;14.10;99.90;;;;;;5023419;28;20185;-76
2023/03/14 09:30:52;;;;;;;0.60;0.60;;;14.10;99.90;;;;;;5027256;28;20208;-75
2023/03/14 09:33:18;;;;;;;0.40;0.40;;;14.10;99.90;;;;;;5026109;28;20181;-76
2023/03/14 09:35:44;;;;;;;2.15;0.70;;;14.20;99.90;;;;;;5023382;28;20277;-76
2023/03/14 09:38:09;;;;;;;0.55;0.55;;;14.20;99.90;;;;;;5026851;28;20211;-75
2023/03/14 09:40:36;;;;;;;0.70;0.70;;;14.40;99.90;;;;;;5023786;28;20211;-75
2023/03/14 09:43:02;;;;;;;2.35;1.15;;;14.70;99.90;;;;;;5027290;28;20242;-75
2023/03/14 09:45:36;;;;;;;3.40;0.47;;;14.90;99.90;;;;;;5023480;28;20193;-75
2023/03/14 09:48:03;;;;;;;1.00;0.80;;;15.00;99.90;;;;;;5026077;28;20562;-75
2023/03/14 09:50:59;;;;;;;1.30;0.82;;;15.10;99.90;;;;;;5026030;28;20208;-75
2023/03/14 09:53:45;;;;;;;0.47;0.38;;;15.30;99.90;;;;;;5026037;28;20243;-75
2023/03/14 09:56:18;;;;;;;0.70;0.70;;;15.40;99.90;;;;;;5030672;28;20671;-75
2023/03/14 09:58:48;;;;;;;0.52;0.50;;;15.20;99.90;;;;;;5025255;28;20217;-75
2023/03/14 10:01:19;;;;;;;0.30;0.30;;;15.00;99.90;;;;;;5024202;28;20247;-75
2023/03/14 10:03:46;;;;;;;0.25;0.25;;;15.10;99.90;;;;;;5022760;28;20555;-75
2023/03/14 10:06:13;;;;;;;0.77;0.60;;;15.10;99.90;;;;;;5022201;28;20264;-75
2023/03/14 10:08:43;;;;;;;1.23;0.80;;;15.30;99.90;;;;;;5032532;28;20203;-76
2023/03/14 10:11:18;;;;;;;0.00;0.00;;;15.60;99.90;;;;;;5025426;28;20207;-75
2023/03/14 10:14:06;;;;;;;0.40;0.40;;;16.20;99.90;;;;;;5017784;28;20260;-75
2023/03/14 10:16:35;;;;;;;0.50;0.50;;;17.10;99.90;;;;;;5019802;28;20181;-76
2023/03/14 10:19:15;;;;;;;0.40;0.40;;;17.30;99.90;;;;;;5028995;28;20220;-75
2023/03/14 10:21:50;;;;;;;1.05;0.68;;;17.20;99.90;;;;;;5030870;28;20219;-75
2023/03/14 10:24:25;;;;;;;0.20;0.20;;;17.30;99.90;;;;;;5033261;28;20185;-76
2023/03/14 10:26:58;;;;;;;0.43;0.40;;;17.70;99.70;;;;;;5031772;28;20187;-75
2023/03/14 10:29:23;;;;;;;0.30;0.30;;;18.30;99.50;;;;;;5031969;28;20234;-75
2023/03/14 10:32:03;;;;;;;0.57;0.55;;;19.50;95.20;;;;;;5035402;28;20221;-75
2023/03/14 10:34:35;;;;;;;0.73;0.40;;;20.70;93.10;;;;;;5032567;28;20188;-76
2023/03/14 10:37:17;;;;;;;0.38;0.38;;;21.90;87.20;;;;;;5031302;28;20177;-75
2023/03/14 10:39:53;;;;;;;0.10;0.10;;;22.40;83.60;;;;;;5030559;28;20275;-76
2023/03/14 10:42:29;;;;;;;0.28;0.28;;;21.90;79.10;;;;;;5032827;28;20271;-76
2023/03/14 10:44:59;;;;;;;1.05;0.57;;;20.90;82.10;;;;;;5032600;28;21255;-75
2023/03/14 10:47:28;;;;;;;2.08;0.25;;;20.00;84.70;;;;;;5027930;28;20200;-75
2023/03/14 10:49:54;;;;;;;0.20;0.20;;;19.50;85.40;;;;;;5032840;28;20201;-76
2023/03/14 10:52:29;;;;;;;0.40;0.25;;;19.40;85.10;;;;;;5034123;28;20216;-76
2023/03/14 10:54:59;;;;;;;0.28;0.28;;;19.00;85.30;;;;;;5030798;28;20176;-75
2023/03/14 10:57:25;;;;;;;0.30;0.30;;;18.40;87.30;;;;;;5032690;28;20195;-75
2023/03/14 10:59:53;;;;;;;0.30;0.30;;;18.00;88.90;;;;;;5034345;28;20207;-76
2023/03/14 11:02:52;;;;;;;0.77;0.50;;;18.00;89.20;;;;;;5035174;28;20184;-76
2023/03/14 11:05:43;;;;;;;0.20;0.20;;;17.90;88.70;;;;;;5030600;28;20199;-75
2023/03/14 11:08:24;;;;;;;0.43;0.43;;;17.70;90.20;;;;;;5034002;28;20185;-75
2023/03/14 11:11:07;;;;;;;0.40;0.40;;;17.40;90.00;;;;;;5034899;28;20283;-75
2023/03/14 11:14:06;;;;;;;0.28;0.22;;;17.10;91.00;;;;;;5031470;28;20244;-75
2023/03/14 11:16:41;;;;;;;0.98;0.50;;;16.70;90.90;;;;;;5021907;28;20184;-76
2023/03/14 11:19:30;;;;;;;2.00;0.32;;;16.20;91.90;;;;;;5030712;28;20189;-75
2023/03/14 11:22:20;;;;;;;0.77;0.60;;;15.70;92.50;;;;;;5028306;28;20191;-75
2023/03/14 11:25:20;;;;;;;0.63;0.63;;;15.10;94.00;;;;;;5036027;28;20180;-76
2023/03/14 11:27:52;;;;;;;0.50;0.50;;;14.50;95.30;;;;;;5031128;28;20176;-76
2023/03/14 11:30:19;;;;;;;0.30;0.30;;;14.10;97.00;;;;;;5029391;28;20252;-75
2023/03/14 11:33:01;;;;;;;0.40;0.40;;;14.00;96.70;;;;;;5029866;28;20592;-75
2023/03/14 11:35:36;;;;;;;0.30;0.30;;;13.80;97.70;;;;;;5029171;28;20184;-75
2023/03/14 11:38:13;;;;;;;1.05;0.60;;;14.00;97.90;;;;;;5036731;28;20675;-75
2023/03/14 11:40:40;;;;;;;0.30;0.30;;;13.80;98.20;;;;;;5025894;28;20212;-76
2023/03/14 11:43:15;;;;;;;0.30;0.30;;;14.00;98.50;;;;;;5030473;28;20180;-75
2023/03/14 11:45:42;;;;;;;0.90;0.50;;;14.20;98.10;;;;;;5027367;28;20550;-76
2023/03/14 11:48:30;;;;;;;0.30;0.30;;;14.50;97.20;;;;;;5033279;28;20188;-75
2023/03/14 11:50:58;;;;;;;0.65;0.65;;;14.80;97.30;;;;;;5030904;28;20203;-76
2023/03/14 11:53:50;;;;;;;1.20;0.90;;;15.20;96.70;;;;;;5033481;28;21043;-76
2023/03/14 11:56:29;;;;;;;0.90;0.47;;;15.90;95.90;;;;;;5030986;28;20176;-76
2023/03/14 11:58:59;;;;;;;0.65;0.55;;;16.30;94.80;;;;;;5021188;28;20188;-76
2023/03/14 12:01:36;;;;;;;0.60;0.60;;;16.60;94.30;;;;;;5031603;28;20211;-76
2023/03/14 12:04:13;;;;;;;0.63;0.63;;;16.90;93.30;;;;;;5033596;28;20266;-76
2023/03/14 12:06:49;;;;;;;0.85;0.50;;;17.50;93.00;;;;;;5021974;28;20228;-76
2023/03/14 12:09:18;;;;;;;0.75;0.57;;;19.50;90.10;;;;;;5028298;28;20180;-75
2023/03/14 12:12:00;;;;;;;1.35;0.50;;;21.50;83.80;;;;;;5028683;28;20288;-76
2023/03/14 12:14:30;;;;;;;0.52;0.52;;;22.70;77.70;;;;;;5026419;28;20176;-76
2023/03/14 12:17:03;;;;;;;0.50;0.35;;;24.50;71.40;;;;;;5031711;28;20176;-75
2023/03/14 12:19:32;;;;;;;0.15;0.10;;;23.70;68.20;;;;;;5031235;28;20319;-75
2023/03/14 12:22:18;;;;;;;0.50;0.40;;;22.10;69.60;;;;;;5028994;28;20199;-76
2023/03/14 12:24:57;;;;;;;0.75;0.43;;;20.90;73.30;;;;;;5029357;28;20196;-77
2023/03/14 12:27:44;;;;;;;0.30;0.30;;;19.60;76.20;;;;;;5032449;28;20180;-77
2023/03/14 12:30:38;;;;;;;1.23;0.40;;;18.40;80.10;;;;;;5035186;28;20231;-75
2023/03/14 12:33:12;;;;;;;0.77;0.77;;;17.50;82.30;;;;;;5021092;28;20193;-75
2023/03/14 12:35:41;;;;;;;0.17;0.17;;;16.80;86.20;;;;;;5026735;28;20187;-77
2023/03/14 12:38:14;;;;;;;0.40;0.40;;;16.50;88.10;;;;;;5032869;28;20169;-75
2023/03/14 12:40:55;;;;;;;1.05;0.55;;;16.10;89.40;;;;;;5029033;28;20248;-78
2023/03/14 12:43:29;;;;;;;1.75;0.50;;;15.60;91.00;;;;;;5030753;28;20179;-76
2023/03/14 12:46:07;;;;;;;1.17;0.40;;;15.20;92.40;;;;;;5034949;28;20195;-75
2023/03/14 12:48:33;;;;;;;0.55;0.40;;;15.10;92.80;;;;;;5030004;28;20186;-75
2023/03/14 12:51:05;;;;;;;0.20;0.20;;;15.00;93.70;;;;;;5031014;28;20208;-77
2023/03/14 12:53:41;;;;;;;0.60;0.60;;;15.10;93.90;;;;;;5031803;28;20222;-77
2023/03/14 12:56:44;;;;;;;0.20;0.20;;;15.00;94.10;;;;;;5033687;28;20175;-75
2023/03/14 12:59:24;;;;;;;0.30;0.30;;;14.90;99.90;;;;;;5030665;28;20196;-75
2023/03/14 13:02:06;;;;;;;0.30;0.28;;;14.50;99.90;;;;;;5027101;28;20529;-76